createdAt,value
2019-01-10T00:00:28.892Z,7.53
2019-01-10T00:03:02.488Z,6.95
2019-01-10T00:05:38.934Z,5.90
2019-01-10T00:08:15.437Z,6.30
2019-01-10T00:10:47.521Z,6.08
2019-01-10T00:13:20.195Z,9.08
2019-01-10T00:15:51.630Z,7.28
2019-01-10T00:18:22.937Z,6.37
2019-01-10T00:20:54.480Z,5.92
2019-01-10T00:23:26.189Z,6.37
2019-01-10T00:25:57.631Z,7.08
2019-01-10T00:28:29.109Z,7.28
2019-01-10T00:31:00.516Z,7.12
2019-01-10T00:33:32.287Z,6.12
2019-01-10T00:36:03.811Z,5.85
2019-01-10T00:38:35.283Z,6.53
2019-01-10T00:41:06.621Z,6.55
2019-01-10T00:43:38.002Z,5.80
2019-01-10T00:46:09.441Z,6.15
2019-01-10T00:48:40.781Z,6.78
2019-01-10T00:51:13.254Z,6.70
2019-01-10T00:53:45.546Z,5.87
2019-01-10T00:56:17.536Z,5.90
2019-01-10T00:58:48.922Z,6.08
2019-01-10T01:01:23.138Z,6.05
2019-01-10T01:03:54.871Z,5.10
2019-01-10T01:06:26.365Z,6.10
2019-01-10T01:08:57.776Z,5.78
2019-01-10T01:11:29.340Z,5.62
2019-01-10T01:14:00.636Z,5.45
2019-01-10T01:16:31.975Z,6.15
2019-01-10T01:19:03.296Z,5.58
2019-01-10T01:21:35.323Z,6.70
2019-01-10T01:24:06.748Z,5.70
2019-01-10T01:26:38.176Z,6.17
2019-01-10T01:29:09.628Z,5.83
2019-01-10T01:31:40.996Z,6.00
2019-01-10T01:34:12.728Z,6.03
2019-01-10T01:36:44.173Z,5.90
2019-01-10T01:39:15.630Z,5.22
2019-01-10T01:41:47.049Z,5.78
2019-01-10T01:44:18.711Z,6.28
2019-01-10T01:46:50.070Z,7.08
2019-01-10T01:49:21.506Z,6.95
2019-01-10T01:51:53.069Z,7.22
2019-01-10T01:54:24.457Z,7.50
2019-01-10T01:56:55.856Z,7.25
2019-01-10T01:59:27.285Z,7.22
2019-01-10T02:01:58.783Z,7.15
2019-01-10T02:04:30.204Z,6.72
2019-01-10T02:07:02.142Z,7.60
2019-01-10T02:09:33.643Z,6.95
2019-01-10T02:12:05.409Z,5.90
2019-01-10T02:14:36.925Z,6.90
2019-01-10T02:17:08.347Z,7.08
2019-01-10T02:19:40.090Z,6.97
2019-01-10T02:22:11.805Z,6.55
2019-01-10T02:24:43.370Z,7.92
2019-01-10T02:27:14.876Z,7.40
2019-01-10T02:29:46.393Z,7.05
2019-01-10T02:32:17.841Z,7.75
2019-01-10T02:34:49.325Z,7.83
2019-01-10T02:37:20.753Z,6.97
2019-01-10T02:39:52.193Z,7.45
2019-01-10T02:42:23.605Z,7.47
2019-01-10T02:44:55.087Z,7.20
2019-01-10T02:47:26.514Z,6.85
2019-01-10T02:49:57.984Z,7.12
2019-01-10T02:52:29.888Z,7.05
2019-01-10T02:55:01.720Z,8.30
2019-01-10T02:57:51.267Z,6.90
2019-01-10T03:00:31.603Z,7.87
2019-01-10T03:03:03.330Z,7.55
2019-01-10T03:05:40.385Z,7.70
2019-01-10T03:08:16.646Z,8.90
2019-01-10T03:11:12.877Z,7.15
2019-01-10T03:13:47.928Z,7.35
2019-01-10T03:16:18.928Z,7.35
2019-01-10T03:18:53.662Z,7.72
2019-01-10T03:21:25.171Z,8.63
2019-01-10T03:23:58.179Z,7.55
2019-01-10T03:26:29.989Z,8.10
2019-01-10T03:29:01.423Z,8.75
2019-01-10T03:31:32.886Z,7.95
2019-01-10T03:34:05.678Z,7.60
2019-01-10T03:36:37.226Z,8.80
2019-01-10T03:39:10.253Z,9.50
2019-01-10T03:41:41.669Z,8.05
2019-01-10T03:44:13.072Z,8.10
2019-01-10T03:46:44.508Z,7.70
2019-01-10T03:49:15.961Z,7.65
2019-01-10T03:51:47.427Z,7.60
2019-01-10T03:54:18.740Z,7.58
2019-01-10T03:56:50.188Z,7.67
2019-01-10T03:59:21.608Z,8.68
2019-01-10T04:01:52.922Z,7.37
2019-01-10T04:04:24.364Z,7.85
2019-01-10T04:06:55.740Z,8.08
2019-01-10T04:09:27.371Z,7.30
2019-01-10T04:11:58.715Z,8.30
2019-01-10T04:14:30.079Z,9.20
2019-01-10T04:17:01.512Z,7.45
2019-01-10T04:19:32.936Z,8.93
2019-01-10T04:22:04.405Z,9.03
2019-01-10T04:24:35.820Z,8.40
2019-01-10T04:27:07.238Z,9.20
2019-01-10T04:29:38.565Z,9.20
2019-01-10T04:32:09.929Z,8.23
2019-01-10T04:34:41.396Z,7.83
2019-01-10T04:37:12.797Z,8.43
2019-01-10T04:39:44.264Z,9.20
2019-01-10T04:42:15.750Z,9.15
2019-01-10T04:44:47.460Z,9.25
2019-01-10T04:47:18.832Z,8.00
2019-01-10T04:49:54.891Z,8.55
2019-01-10T04:52:26.321Z,8.45
2019-01-10T04:54:57.800Z,9.55
2019-01-10T04:57:29.272Z,9.13
2019-01-10T05:00:00.834Z,8.73
2019-01-10T05:02:32.249Z,9.10
2019-01-10T05:05:03.706Z,8.50
2019-01-10T05:07:35.169Z,9.45
2019-01-10T05:10:08.378Z,8.45
2019-01-10T05:12:41.740Z,8.20
2019-01-10T05:15:13.350Z,8.55
2019-01-10T05:17:44.750Z,13.65
2019-01-10T05:20:19.091Z,8.50
2019-01-10T05:22:50.572Z,9.15
2019-01-10T05:25:21.926Z,8.40
2019-01-10T05:27:53.380Z,10.15
2019-01-10T05:30:25.990Z,8.50
2019-01-10T05:32:57.401Z,8.50
2019-01-10T05:35:28.897Z,8.78
2019-01-10T05:38:00.332Z,8.23
2019-01-10T05:40:31.785Z,8.45
2019-01-10T05:43:03.557Z,8.48
2019-01-10T05:45:35.038Z,8.65
2019-01-10T05:48:06.724Z,7.87
2019-01-10T05:50:38.359Z,8.85
2019-01-10T05:53:09.897Z,9.55
2019-01-10T05:55:41.469Z,8.90
2019-01-10T05:58:12.906Z,9.18
2019-01-10T06:00:44.387Z,8.98
2019-01-10T06:03:15.893Z,10.28
2019-01-10T06:05:47.360Z,8.45
2019-01-10T06:08:18.824Z,8.85
2019-01-10T06:10:50.309Z,9.10
2019-01-10T06:13:21.860Z,8.45
2019-01-10T06:15:53.349Z,9.28
2019-01-10T06:18:24.815Z,8.53
2019-01-10T06:20:56.305Z,7.85
2019-01-10T06:23:27.742Z,9.13
2019-01-10T06:25:59.234Z,8.65
2019-01-10T06:28:30.713Z,8.20
2019-01-10T06:31:02.213Z,7.55
2019-01-10T06:33:33.686Z,7.87
2019-01-10T06:36:05.385Z,8.58
2019-01-10T06:38:36.796Z,9.10
2019-01-10T06:41:08.251Z,9.20
2019-01-10T06:43:39.572Z,8.38
2019-01-10T06:46:15.479Z,9.30
2019-01-10T06:48:46.865Z,8.80
2019-01-10T06:51:18.266Z,7.42
2019-01-10T06:53:49.707Z,9.23
2019-01-10T06:56:21.139Z,8.48
2019-01-10T06:58:52.729Z,8.45
2019-01-10T07:01:24.231Z,8.65
2019-01-10T07:03:56.096Z,9.95
2019-01-10T07:06:27.591Z,9.85
2019-01-10T07:08:59.198Z,9.28
2019-01-10T07:11:30.718Z,9.30
2019-01-10T07:14:02.117Z,10.60
2019-01-10T07:16:33.752Z,10.75
2019-01-10T07:19:05.356Z,10.20
2019-01-10T07:21:59.481Z,11.05
2019-01-10T07:24:30.940Z,10.95
2019-01-10T07:27:02.442Z,11.03
2019-01-10T07:29:33.967Z,9.90
2019-01-10T07:32:05.491Z,10.30
2019-01-10T07:34:36.957Z,9.78
2019-01-10T07:37:13.053Z,10.75
2019-01-10T07:39:41.686Z,10.60
2019-01-10T07:42:13.145Z,10.58
2019-01-10T07:44:44.477Z,9.58
2019-01-10T07:47:15.921Z,10.58
2019-01-10T07:49:47.394Z,9.80
2019-01-10T07:52:20.485Z,10.45
2019-01-10T07:54:51.917Z,9.63
2019-01-10T07:57:23.336Z,9.85
2019-01-10T07:59:54.736Z,10.75
2019-01-10T08:02:26.215Z,10.28
2019-01-10T08:04:57.639Z,11.20
2019-01-10T08:07:29.038Z,11.53
2019-01-10T08:10:00.471Z,10.43
2019-01-10T08:12:31.924Z,10.75
2019-01-10T08:15:11.603Z,10.88
2019-01-10T08:17:36.791Z,11.00
2019-01-10T08:20:08.454Z,11.10
2019-01-10T08:22:39.913Z,10.70
2019-01-10T08:25:11.426Z,10.25
2019-01-10T08:27:43.222Z,10.72
2019-01-10T08:30:21.322Z,9.95
2019-01-10T08:32:52.748Z,11.68
2019-01-10T08:35:26.986Z,10.68
2019-01-10T08:37:58.401Z,10.48
2019-01-10T08:40:29.827Z,10.10
2019-01-10T08:43:01.167Z,12.03
2019-01-10T08:45:32.612Z,10.80
2019-01-10T08:48:03.991Z,11.85
2019-01-10T08:50:36.933Z,10.03
2019-01-10T08:53:08.325Z,10.78
2019-01-10T08:55:39.673Z,11.25
2019-01-10T08:58:11.016Z,9.85
2019-01-10T09:00:43.417Z,10.23
2019-01-10T09:03:14.758Z,9.43
2019-01-10T09:05:46.133Z,9.63
2019-01-10T09:08:17.593Z,10.58
2019-01-10T09:10:50.029Z,10.58
2019-01-10T09:13:21.416Z,9.78
2019-01-10T09:15:52.823Z,10.78
2019-01-10T09:18:24.255Z,10.38
2019-01-10T09:21:04.001Z,9.93
2019-01-10T09:23:28.681Z,9.68
2019-01-10T09:26:01.046Z,9.23
2019-01-10T09:28:32.475Z,9.60
2019-01-10T09:31:04.054Z,8.85
2019-01-10T09:33:35.752Z,9.35
2019-01-10T09:36:07.256Z,10.25
2019-01-10T09:38:38.828Z,9.10
2019-01-10T09:41:10.197Z,10.45
2019-01-10T09:43:41.727Z,11.33
2019-01-10T09:46:13.058Z,9.38
2019-01-10T09:48:44.551Z,9.78
2019-01-10T09:51:15.945Z,9.23
2019-01-10T09:53:47.573Z,9.40
2019-01-10T09:56:18.994Z,10.58
2019-01-10T09:58:50.475Z,10.88
2019-01-10T10:01:21.870Z,9.90
2019-01-10T10:03:53.447Z,8.90
2019-01-10T10:06:24.866Z,9.38
2019-01-10T10:08:56.435Z,10.30
2019-01-10T10:11:34.057Z,9.13
2019-01-10T10:14:01.934Z,9.45
2019-01-10T10:16:33.366Z,11.20
2019-01-10T10:19:04.811Z,9.45
2019-01-10T10:21:36.243Z,9.78
2019-01-10T10:24:07.681Z,10.05
2019-01-10T10:26:39.108Z,11.12
2019-01-10T10:29:10.531Z,9.33
2019-01-10T10:31:41.943Z,12.80
2019-01-10T10:34:13.427Z,10.80
2019-01-10T10:36:44.876Z,9.13
2019-01-10T10:39:16.268Z,10.68
2019-01-10T10:41:47.696Z,9.55
2019-01-10T10:44:19.309Z,10.50
2019-01-10T10:46:50.888Z,9.45
2019-01-10T10:49:22.298Z,10.40
2019-01-10T10:51:53.917Z,9.80
2019-01-10T10:54:25.597Z,9.90
2019-01-10T10:56:57.083Z,11.03
2019-01-10T10:59:28.659Z,9.93
2019-01-10T11:02:00.118Z,12.10
2019-01-10T11:04:31.588Z,10.30
2019-01-10T11:07:02.991Z,10.65
2019-01-10T11:09:34.484Z,9.80
2019-01-10T11:12:05.774Z,9.58
2019-01-10T11:14:37.119Z,10.90
2019-01-10T11:17:08.581Z,9.15
2019-01-10T11:19:40.000Z,9.40
2019-01-10T11:22:11.457Z,8.68
2019-01-10T11:24:42.929Z,9.30
2019-01-10T11:27:14.412Z,8.78
2019-01-10T11:29:45.672Z,9.58
2019-01-10T11:32:17.272Z,9.05
2019-01-10T11:34:48.591Z,8.05
2019-01-10T11:37:20.018Z,8.60
2019-01-10T11:39:51.376Z,9.08
2019-01-10T11:42:28.377Z,9.48
2019-01-10T11:44:59.877Z,8.83
2019-01-10T11:47:31.248Z,7.58
2019-01-10T11:50:02.795Z,8.20
2019-01-10T11:52:34.615Z,8.38
2019-01-10T11:55:07.068Z,7.90
2019-01-10T11:57:38.506Z,8.85
2019-01-10T12:00:16.097Z,8.75
2019-01-10T12:02:47.551Z,8.73
2019-01-10T12:05:19.219Z,9.23
2019-01-10T12:07:50.648Z,8.83
2019-01-10T12:10:22.097Z,9.10
2019-01-10T12:12:53.680Z,10.53
2019-01-10T12:15:25.031Z,9.05
2019-01-10T12:17:56.488Z,8.80
2019-01-10T12:20:27.831Z,8.60
2019-01-10T12:22:59.139Z,8.45
2019-01-10T12:25:30.726Z,8.45
2019-01-10T12:28:02.155Z,9.08
2019-01-10T12:30:33.562Z,9.05
2019-01-10T12:33:05.004Z,8.88
2019-01-10T12:35:36.439Z,8.50
2019-01-10T12:38:07.821Z,8.65
2019-01-10T12:40:39.246Z,8.45
2019-01-10T12:43:10.653Z,9.00
2019-01-10T12:45:42.115Z,8.00
2019-01-10T12:48:13.467Z,6.97
2019-01-10T12:50:44.861Z,7.15
2019-01-10T12:53:16.231Z,6.95
2019-01-10T12:55:47.600Z,7.60
2019-01-10T12:58:19.088Z,6.85
2019-01-10T13:00:50.498Z,6.75
2019-01-10T13:03:21.885Z,6.45
2019-01-10T13:05:53.193Z,6.60
2019-01-10T13:08:24.597Z,6.78
2019-01-10T13:10:56.008Z,8.33
2019-01-10T13:13:27.472Z,7.40
2019-01-10T13:15:58.888Z,7.05
2019-01-10T13:18:30.371Z,8.55
2019-01-10T13:21:01.829Z,6.95
2019-01-10T13:23:33.188Z,7.55
2019-01-10T13:26:04.842Z,6.55
2019-01-10T13:28:36.615Z,7.08
2019-01-10T13:31:08.177Z,7.60
2019-01-10T13:33:41.926Z,6.60
2019-01-10T13:36:13.358Z,7.30
2019-01-10T13:38:44.744Z,6.10
2019-01-10T13:41:16.275Z,7.10
2019-01-10T13:43:47.681Z,7.65
2019-01-10T13:46:19.114Z,7.95
2019-01-10T13:48:51.633Z,7.75
2019-01-10T13:51:23.150Z,6.75
2019-01-10T13:53:54.572Z,7.30
2019-01-10T13:56:26.020Z,7.15
2019-01-10T13:58:57.500Z,7.90
2019-01-10T14:01:32.029Z,7.42
2019-01-10T14:04:15.614Z,8.10
2019-01-10T14:06:47.202Z,7.97
2019-01-10T14:09:18.773Z,7.70
2019-01-10T14:11:50.545Z,8.10
2019-01-10T14:14:22.079Z,8.08
2019-01-10T14:16:54.538Z,7.80
2019-01-10T14:19:25.961Z,8.08
2019-01-10T14:21:57.674Z,8.20
2019-01-10T14:24:29.571Z,8.70
2019-01-10T14:27:01.481Z,7.47
2019-01-10T14:29:33.585Z,6.60
2019-01-10T14:32:05.626Z,7.37
2019-01-10T14:34:37.634Z,8.23
2019-01-10T14:37:09.571Z,7.33
2019-01-10T14:39:41.890Z,7.70
2019-01-10T14:42:13.673Z,6.80
2019-01-10T14:44:45.491Z,7.62
2019-01-10T14:47:17.859Z,8.38
2019-01-10T14:49:49.563Z,7.37
2019-01-10T14:52:21.628Z,7.50
2019-01-10T14:54:53.288Z,7.17
2019-01-10T14:57:25.064Z,6.97
2019-01-10T14:59:56.514Z,6.45
2019-01-10T15:02:28.369Z,7.05
2019-01-10T15:05:00.268Z,6.67
2019-01-10T15:07:32.092Z,6.50
2019-01-10T15:10:03.801Z,5.35
2019-01-10T15:12:35.592Z,5.65
2019-01-10T15:15:11.009Z,5.25
2019-01-10T15:17:42.636Z,5.35
2019-01-10T15:20:20.944Z,5.28
2019-01-10T15:22:52.766Z,5.50
2019-01-10T15:25:30.610Z,5.28
2019-01-10T15:28:02.469Z,5.87
2019-01-10T15:30:37.311Z,7.30
2019-01-10T15:33:11.651Z,6.30
2019-01-10T15:35:43.546Z,5.87
2019-01-10T15:38:17.856Z,5.65
2019-01-10T15:40:51.955Z,6.25
2019-01-10T15:43:23.691Z,6.20
2019-01-10T15:45:55.685Z,5.65
2019-01-10T15:48:27.290Z,5.35
2019-01-10T15:50:58.877Z,5.80
2019-01-10T15:53:33.076Z,6.03
2019-01-10T15:56:10.797Z,7.12
2019-01-10T15:58:43.801Z,6.90
2019-01-10T16:01:15.440Z,6.45
2019-01-10T16:03:47.433Z,6.62
2019-01-10T16:06:19.396Z,6.40
2019-01-10T16:08:52.937Z,6.83
2019-01-10T16:11:28.864Z,6.22
2019-01-10T16:14:06.148Z,6.20
2019-01-10T16:16:42.137Z,6.15
2019-01-10T16:19:24.908Z,5.30
2019-01-10T16:21:56.500Z,5.83
2019-01-10T16:25:06.454Z,6.12
2019-01-10T16:27:36.337Z,6.03
2019-01-10T16:30:15.731Z,5.78
2019-01-10T16:32:47.324Z,5.55
2019-01-10T16:35:18.741Z,6.33
2019-01-10T16:37:50.161Z,5.87
2019-01-10T16:40:21.814Z,5.83
2019-01-10T16:42:53.564Z,5.40
2019-01-10T16:45:31.631Z,5.22
2019-01-10T16:48:03.544Z,5.33
2019-01-10T16:50:34.973Z,5.80
2019-01-10T16:53:06.451Z,5.75
2019-01-10T16:55:38.192Z,5.40
2019-01-10T16:58:09.635Z,5.80
2019-01-10T17:00:41.072Z,5.15
2019-01-10T17:03:12.438Z,5.30
2019-01-10T17:05:43.869Z,5.60
2019-01-10T17:08:15.215Z,5.35
2019-01-10T17:10:46.607Z,6.28
2019-01-10T17:13:19.104Z,4.45
2019-01-10T17:15:50.565Z,5.40
2019-01-10T17:18:22.073Z,5.28
2019-01-10T17:20:53.529Z,6.08
2019-01-10T17:23:24.923Z,5.85
2019-01-10T17:25:56.301Z,5.50
2019-01-10T17:28:27.705Z,5.70
2019-01-10T17:30:59.112Z,5.08
2019-01-10T17:33:30.501Z,5.47
2019-01-10T17:36:02.089Z,5.55
2019-01-10T17:38:33.564Z,5.50
2019-01-10T17:41:05.023Z,6.17
2019-01-10T17:43:36.370Z,6.60
2019-01-10T17:46:07.921Z,5.83
2019-01-10T17:48:39.930Z,4.97
2019-01-10T17:51:11.882Z,5.08
2019-01-10T17:53:43.360Z,5.65
2019-01-10T17:56:14.823Z,5.85
2019-01-10T17:58:46.358Z,6.10
2019-01-10T18:01:17.852Z,6.85
2019-01-10T18:03:50.271Z,5.62
2019-01-10T18:06:21.639Z,6.60
2019-01-10T18:08:53.103Z,6.22
2019-01-10T18:11:24.972Z,6.33
2019-01-10T18:13:56.712Z,5.60
2019-01-10T18:16:28.134Z,6.65
2019-01-10T18:18:59.541Z,6.40
2019-01-10T18:21:33.826Z,5.87
2019-01-10T18:24:05.737Z,7.53
2019-01-10T18:26:37.320Z,6.12
2019-01-10T18:29:08.760Z,6.20
2019-01-10T18:31:40.144Z,6.90
2019-01-10T18:34:11.547Z,6.60
2019-01-10T18:36:43.027Z,6.30
2019-01-10T18:39:15.321Z,6.55
2019-01-10T18:41:46.653Z,6.70
2019-01-10T18:44:17.945Z,6.08
2019-01-10T18:46:49.389Z,6.22
2019-01-10T18:49:20.797Z,7.20
2019-01-10T18:51:53.138Z,6.17
2019-01-10T18:54:24.609Z,5.92
2019-01-10T18:56:55.837Z,5.40
2019-01-10T18:59:28.381Z,5.53
2019-01-10T19:01:59.671Z,5.87
2019-01-10T19:04:31.125Z,5.22
2019-01-10T19:07:02.658Z,6.58
2019-01-10T19:09:34.257Z,6.97
2019-01-10T19:12:05.634Z,6.05
2019-01-10T19:14:37.190Z,6.05
2019-01-10T19:17:08.957Z,5.53
2019-01-10T19:19:40.384Z,6.37
2019-01-10T19:22:11.856Z,6.75
2019-01-10T19:24:43.374Z,6.62
2019-01-10T19:27:14.756Z,5.90
2019-01-10T19:29:46.238Z,6.00
2019-01-10T19:32:17.553Z,6.55
2019-01-10T19:34:48.916Z,6.50
2019-01-10T19:37:20.315Z,7.03
2019-01-10T19:39:51.713Z,6.70
2019-01-10T19:42:23.767Z,6.40
2019-01-10T19:44:55.165Z,6.03
2019-01-10T19:47:26.503Z,6.20
2019-01-10T19:49:58.600Z,6.97
2019-01-10T19:52:30.279Z,6.60
2019-01-10T19:55:02.604Z,6.87
2019-01-10T19:57:34.146Z,6.53
2019-01-10T20:00:08.896Z,6.30
2019-01-10T20:02:41.537Z,6.95
2019-01-10T20:05:12.991Z,6.30
2019-01-10T20:07:44.450Z,7.80
2019-01-10T20:10:15.922Z,6.80
2019-01-10T20:12:47.479Z,7.85
2019-01-10T20:15:18.981Z,7.87
2019-01-10T20:17:50.504Z,7.60
2019-01-10T20:20:32.262Z,7.65
2019-01-10T20:23:04.685Z,7.62
2019-01-10T20:25:37.525Z,8.03
2019-01-10T20:28:08.984Z,8.08
2019-01-10T20:30:40.628Z,8.03
2019-01-10T20:33:12.003Z,8.25
2019-01-10T20:35:43.535Z,9.55
2019-01-10T20:38:15.035Z,8.40
2019-01-10T20:40:46.884Z,8.95
2019-01-10T20:43:18.425Z,9.00
2019-01-10T20:45:49.785Z,8.60
2019-01-10T20:48:22.571Z,8.10
2019-01-10T20:50:54.166Z,8.18
2019-01-10T20:53:25.689Z,7.85
2019-01-10T20:55:57.164Z,7.37
2019-01-10T20:58:28.586Z,7.78
2019-01-10T21:01:01.491Z,7.90
2019-01-10T21:03:33.242Z,7.33
2019-01-10T21:06:04.982Z,7.97
2019-01-10T21:08:36.517Z,9.00
2019-01-10T21:11:07.938Z,8.75
2019-01-10T21:13:39.311Z,10.35
2019-01-10T21:16:10.802Z,9.78
2019-01-10T21:18:42.460Z,8.70
2019-01-10T21:21:13.851Z,8.38
2019-01-10T21:23:45.236Z,7.25
2019-01-10T21:26:16.508Z,7.80
2019-01-10T21:28:48.049Z,8.08
2019-01-10T21:31:19.920Z,7.53
2019-01-10T21:33:51.408Z,9.00
2019-01-10T21:36:22.712Z,7.97
2019-01-10T21:38:54.043Z,8.40
2019-01-10T21:41:25.387Z,10.68
2019-01-10T21:43:56.847Z,9.50
2019-01-10T21:46:28.375Z,8.88
2019-01-10T21:48:59.735Z,8.10
2019-01-10T21:51:31.170Z,8.20
2019-01-10T21:54:03.582Z,7.95
2019-01-10T21:56:35.013Z,9.55
2019-01-10T21:59:06.621Z,9.13
2019-01-10T22:01:37.952Z,9.03
2019-01-10T22:04:09.354Z,8.65
2019-01-10T22:06:40.824Z,8.83
2019-01-10T22:09:12.282Z,9.13
2019-01-10T22:11:43.857Z,7.80
2019-01-10T22:14:15.279Z,8.68
2019-01-10T22:16:46.682Z,8.35
2019-01-10T22:19:18.095Z,8.05
2019-01-10T22:21:49.497Z,8.63
2019-01-10T22:24:20.991Z,9.50
2019-01-10T22:26:52.639Z,8.40
2019-01-10T22:29:24.163Z,8.63
2019-01-10T22:31:55.743Z,8.05
2019-01-10T22:34:27.179Z,8.03
2019-01-10T22:36:58.804Z,7.67
2019-01-10T22:39:30.227Z,9.20
2019-01-10T22:42:01.829Z,8.80
2019-01-10T22:44:33.265Z,9.10
2019-01-10T22:47:04.694Z,8.53
2019-01-10T22:49:36.106Z,8.50
2019-01-10T22:52:07.495Z,9.18
2019-01-10T22:54:38.914Z,6.78
2019-01-10T22:57:10.395Z,7.28
2019-01-10T22:59:41.824Z,7.92
2019-01-10T23:02:13.446Z,7.60
2019-01-10T23:04:45.345Z,8.55
2019-01-10T23:07:22.169Z,8.38
2019-01-10T23:09:55.261Z,8.90
2019-01-10T23:12:34.034Z,9.03
2019-01-10T23:15:34.487Z,9.33
2019-01-10T23:18:07.566Z,8.23
2019-01-10T23:20:38.949Z,7.58
2019-01-10T23:23:11.547Z,7.97
2019-01-10T23:25:42.975Z,8.38
2019-01-10T23:28:14.547Z,8.60
2019-01-10T23:30:52.568Z,8.35
2019-01-10T23:33:25.040Z,9.05
2019-01-10T23:36:04.403Z,9.43
2019-01-10T23:38:36.138Z,8.80
2019-01-10T23:41:07.604Z,8.73
2019-01-10T23:43:38.920Z,7.72
2019-01-10T23:46:10.315Z,7.72
2019-01-10T23:48:41.885Z,8.00
2019-01-10T23:51:13.267Z,8.70
2019-01-10T23:53:44.736Z,8.48
2019-01-10T23:56:16.158Z,8.65
2019-01-10T23:58:47.483Z,8.75
